createdAt,value
2023-03-18T00:00:19.589Z,12.10
2023-03-18T00:02:47.852Z,12.10
2023-03-18T00:05:18.407Z,12.10
2023-03-18T00:07:46.737Z,12.10
2023-03-18T00:10:13.801Z,12.10
2023-03-18T00:12:41.567Z,12.10
2023-03-18T00:15:11.192Z,12.20
2023-03-18T00:17:40.193Z,12.20
2023-03-18T00:20:08.339Z,12.20
2023-03-18T00:22:37.646Z,12.20
2023-03-18T00:25:07.044Z,12.20
2023-03-18T00:27:34.996Z,12.10
2023-03-18T00:30:03.430Z,12.10
2023-03-18T00:32:30.454Z,12.10
2023-03-18T00:34:57.476Z,12.10
2023-03-18T00:37:31.823Z,12.10
2023-03-18T00:40:10.232Z,12.00
2023-03-18T00:42:42.840Z,12.00
2023-03-18T00:45:11.048Z,12.00
2023-03-18T00:47:38.552Z,12.00
2023-03-18T00:50:07.334Z,12.00
2023-03-18T00:52:36.014Z,12.10
2023-03-18T00:55:03.304Z,12.00
2023-03-18T00:57:30.256Z,12.00
2023-03-18T00:59:59.272Z,12.00
2023-03-18T01:02:28.430Z,11.90
2023-03-18T01:04:57.341Z,11.90
2023-03-18T01:07:24.808Z,11.90
2023-03-18T01:09:51.708Z,11.90
2023-03-18T01:12:18.940Z,11.80
2023-03-18T01:14:45.841Z,11.80
2023-03-18T01:17:12.994Z,11.80
2023-03-18T01:19:39.877Z,11.70
2023-03-18T01:22:07.546Z,11.80
2023-03-18T01:24:34.498Z,11.80
2023-03-18T01:27:01.383Z,11.70
2023-03-18T01:29:28.673Z,11.70
2023-03-18T01:31:55.891Z,11.70
2023-03-18T01:34:23.766Z,11.70
2023-03-18T01:36:50.974Z,11.70
2023-03-18T01:39:18.386Z,11.70
2023-03-18T01:41:45.815Z,11.60
2023-03-18T01:44:19.183Z,11.60
2023-03-18T01:46:47.581Z,11.60
2023-03-18T01:49:24.005Z,11.60
2023-03-18T01:52:15.718Z,11.60
2023-03-18T01:54:47.607Z,11.50
2023-03-18T01:57:17.589Z,11.50
2023-03-18T01:59:46.412Z,11.50
2023-03-18T02:02:15.593Z,11.40
2023-03-18T02:04:50.407Z,11.40
2023-03-18T02:07:23.364Z,11.40
2023-03-18T02:09:51.239Z,11.40
2023-03-18T02:12:36.997Z,11.40
2023-03-18T02:15:07.941Z,11.30
2023-03-18T02:17:38.801Z,11.30
2023-03-18T02:20:05.608Z,11.30
2023-03-18T02:22:47.502Z,11.30
2023-03-18T02:25:37.464Z,11.30
2023-03-18T02:28:09.584Z,11.20
2023-03-18T02:30:42.420Z,11.20
2023-03-18T02:33:10.989Z,11.20
2023-03-18T02:35:40.193Z,11.10
2023-03-18T02:38:07.133Z,11.20
2023-03-18T02:40:40.707Z,11.10
2023-03-18T02:43:28.914Z,11.10
2023-03-18T02:46:17.016Z,11.10
2023-03-18T02:48:46.248Z,11.10
2023-03-18T02:51:16.126Z,11.00
2023-03-18T02:53:43.852Z,11.00
2023-03-18T02:56:11.890Z,11.00
2023-03-18T02:58:38.995Z,11.00
2023-03-18T03:01:08.404Z,11.00
2023-03-18T03:03:36.501Z,11.00
2023-03-18T03:06:04.457Z,11.00
2023-03-18T03:08:31.460Z,11.00
2023-03-18T03:10:58.365Z,11.00
2023-03-18T03:13:25.308Z,11.00
2023-03-18T03:15:52.406Z,11.00
2023-03-18T03:18:20.722Z,11.00
2023-03-18T03:20:48.213Z,10.90
2023-03-18T03:23:16.775Z,10.90
2023-03-18T03:25:47.173Z,10.80
2023-03-18T03:28:16.597Z,10.80
2023-03-18T03:30:43.785Z,10.80
2023-03-18T03:33:11.112Z,10.80
2023-03-18T03:35:38.996Z,10.80
2023-03-18T03:38:06.586Z,10.70
2023-03-18T03:40:34.103Z,10.70
2023-03-18T03:43:01.467Z,10.70
2023-03-18T03:45:28.611Z,10.70
2023-03-18T03:47:55.735Z,10.70
2023-03-18T03:50:22.593Z,10.60
2023-03-18T03:52:49.821Z,10.60
2023-03-18T03:55:19.440Z,10.70
2023-03-18T03:57:46.702Z,10.60
2023-03-18T04:00:17.306Z,10.60
2023-03-18T04:02:45.402Z,10.60
2023-03-18T04:05:15.583Z,10.60
2023-03-18T04:07:42.438Z,10.60
2023-03-18T04:10:10.855Z,10.60
2023-03-18T04:12:39.099Z,10.70
2023-03-18T04:15:07.538Z,10.50
2023-03-18T04:17:34.735Z,10.50
2023-03-18T04:20:02.125Z,10.50
2023-03-18T04:22:29.665Z,10.50
2023-03-18T04:24:56.824Z,10.40
2023-03-18T04:27:23.785Z,10.40
2023-03-18T04:29:50.908Z,10.40
2023-03-18T04:32:17.925Z,10.30
2023-03-18T04:34:44.778Z,10.30
2023-03-18T04:37:14.180Z,10.30
2023-03-18T04:39:41.925Z,10.30
2023-03-18T04:42:08.792Z,10.30
2023-03-18T04:44:35.784Z,10.30
2023-03-18T04:47:02.645Z,10.30
2023-03-18T04:49:29.853Z,10.20
2023-03-18T04:51:56.765Z,10.20
2023-03-18T04:54:23.634Z,10.20
2023-03-18T04:56:50.782Z,10.20
2023-03-18T04:59:19.095Z,10.20
2023-03-18T05:01:46.048Z,10.20
2023-03-18T05:04:13.129Z,10.20
2023-03-18T05:06:40.376Z,10.10
2023-03-18T05:09:07.215Z,10.20
2023-03-18T05:11:34.254Z,10.10
2023-03-18T05:14:01.359Z,10.20
2023-03-18T05:16:28.269Z,10.10
2023-03-18T05:18:55.442Z,10.10
2023-03-18T05:21:22.401Z,10.10
2023-03-18T05:23:49.334Z,10.20
2023-03-18T05:26:17.135Z,10.20
2023-03-18T05:28:44.085Z,10.20
2023-03-18T05:31:11.272Z,10.20
2023-03-18T05:33:38.209Z,10.20
2023-03-18T05:36:05.373Z,10.20
2023-03-18T05:38:32.223Z,10.20
2023-03-18T05:40:59.162Z,10.20
2023-03-18T05:43:26.731Z,10.20
2023-03-18T05:45:53.700Z,10.20
2023-03-18T05:48:21.332Z,10.20
2023-03-18T05:50:48.168Z,10.20
2023-03-18T05:53:16.730Z,10.20
2023-03-18T05:55:44.122Z,10.20
2023-03-18T05:58:11.865Z,10.20
2023-03-18T06:00:38.738Z,10.20
2023-03-18T06:03:05.800Z,10.30
2023-03-18T06:05:32.995Z,10.20
2023-03-18T06:08:01.297Z,10.30
2023-03-18T06:10:29.788Z,10.20
2023-03-18T06:12:56.875Z,10.30
2023-03-18T06:15:24.439Z,10.20
2023-03-18T06:17:52.722Z,10.20
2023-03-18T06:20:20.110Z,10.20
2023-03-18T06:22:50.404Z,10.20
2023-03-18T06:25:21.618Z,10.20
2023-03-18T06:27:48.969Z,10.20
2023-03-18T06:30:16.850Z,10.20
2023-03-18T06:32:44.734Z,10.20
2023-03-18T06:35:12.599Z,10.20
2023-03-18T06:37:40.214Z,10.20
2023-03-18T06:40:09.047Z,10.20
2023-03-18T06:42:36.508Z,10.20
2023-03-18T06:45:04.164Z,10.20
2023-03-18T06:47:31.293Z,10.20
2023-03-18T06:49:58.255Z,10.20
2023-03-18T06:52:25.432Z,10.20
2023-03-18T06:54:52.266Z,10.20
2023-03-18T06:57:20.394Z,10.30
2023-03-18T06:59:48.094Z,10.40
2023-03-18T07:02:15.508Z,10.40
2023-03-18T07:04:42.756Z,10.40
2023-03-18T07:07:09.777Z,10.40
2023-03-18T07:09:37.144Z,10.50
2023-03-18T07:12:04.097Z,10.50
2023-03-18T07:14:30.951Z,10.50
2023-03-18T07:16:57.828Z,10.60
2023-03-18T07:19:25.193Z,10.60
2023-03-18T07:21:52.412Z,10.60
2023-03-18T07:24:21.507Z,10.60
2023-03-18T07:26:50.255Z,10.70
2023-03-18T07:29:17.618Z,10.60
2023-03-18T07:31:45.106Z,10.60
2023-03-18T07:34:15.734Z,10.70
2023-03-18T07:36:42.670Z,10.70
2023-03-18T07:39:12.753Z,10.70
2023-03-18T07:41:39.572Z,10.70
2023-03-18T07:44:07.836Z,10.70
2023-03-18T07:46:34.783Z,10.80
2023-03-18T07:49:01.950Z,10.70
2023-03-18T07:51:28.874Z,10.80
2023-03-18T07:53:56.610Z,10.80
2023-03-18T07:56:24.274Z,10.80
2023-03-18T07:58:51.667Z,10.80
2023-03-18T08:01:19.524Z,10.80
2023-03-18T08:03:46.780Z,10.90
2023-03-18T08:06:15.496Z,10.90
2023-03-18T08:08:42.996Z,10.80
2023-03-18T08:11:10.698Z,10.90
2023-03-18T08:13:38.804Z,11.00
2023-03-18T08:16:06.615Z,11.00
2023-03-18T08:18:33.563Z,11.00
2023-03-18T08:21:00.579Z,11.10
2023-03-18T08:23:27.865Z,11.00
2023-03-18T08:25:54.753Z,11.10
2023-03-18T08:28:23.765Z,11.10
2023-03-18T08:30:57.752Z,11.10
2023-03-18T08:33:25.874Z,11.20
2023-03-18T08:35:53.325Z,11.20
2023-03-18T08:38:20.231Z,11.20
2023-03-18T08:40:47.457Z,11.30
2023-03-18T08:43:14.675Z,11.30
2023-03-18T08:45:41.748Z,11.40
2023-03-18T08:48:08.623Z,11.50
2023-03-18T08:50:36.633Z,11.50
2023-03-18T08:53:04.302Z,11.60
2023-03-18T08:55:34.754Z,11.60
2023-03-18T09:42:12.408Z,13.40
2023-03-18T09:44:39.945Z,13.50
2023-03-18T09:47:28.472Z,13.60
2023-03-18T09:50:13.903Z,13.70
2023-03-18T09:52:45.610Z,13.90
2023-03-18T09:55:41.257Z,14.00
2023-03-18T09:58:22.452Z,14.10
2023-03-18T10:00:57.184Z,14.00
2023-03-18T10:03:29.793Z,14.10
2023-03-18T10:06:06.822Z,14.20
2023-03-18T10:09:04.998Z,14.20
2023-03-18T10:11:42.863Z,14.30
2023-03-18T10:14:21.696Z,14.30
2023-03-18T10:17:07.494Z,14.20
2023-03-18T10:19:36.166Z,14.30
2023-03-18T10:22:03.093Z,14.50
2023-03-18T10:24:40.708Z,14.70
2023-03-18T10:27:38.361Z,14.90
2023-03-18T10:30:44.381Z,14.80
2023-03-18T10:33:29.242Z,14.70
2023-03-18T10:36:18.145Z,14.60
2023-03-18T10:38:50.732Z,14.50
2023-03-18T10:41:24.665Z,14.40
2023-03-18T10:43:54.884Z,14.30
2023-03-18T10:46:23.426Z,14.30
2023-03-18T10:49:00.152Z,14.20
2023-03-18T10:51:31.595Z,14.30
2023-03-18T10:54:02.835Z,14.60
2023-03-18T10:56:30.629Z,14.90
2023-03-18T10:58:58.292Z,14.90
2023-03-18T11:01:28.983Z,14.90
2023-03-18T11:04:06.754Z,14.80
2023-03-18T11:06:45.776Z,14.80
2023-03-18T11:09:17.846Z,14.90
2023-03-18T11:11:46.799Z,15.20
2023-03-18T11:14:21.154Z,15.50
2023-03-18T11:17:19.217Z,15.80
2023-03-18T11:19:59.473Z,15.80
2023-03-18T11:22:26.706Z,15.80
2023-03-18T11:25:02.066Z,16.00
2023-03-18T11:27:41.822Z,16.40
2023-03-18T11:30:24.321Z,16.40
2023-03-18T11:33:05.960Z,16.20
2023-03-18T11:35:42.696Z,16.20
2023-03-18T11:38:21.130Z,16.20
2023-03-18T11:40:48.330Z,16.00
2023-03-18T11:43:21.242Z,16.10
2023-03-18T11:45:59.657Z,16.10
2023-03-18T11:48:36.893Z,16.50
2023-03-18T11:51:23.116Z,17.50
2023-03-18T11:53:59.934Z,17.80
2023-03-18T11:56:34.978Z,17.50
2023-03-18T11:59:41.041Z,17.60
2023-03-18T12:02:26.025Z,18.00
2023-03-18T12:05:26.205Z,18.80
2023-03-18T12:08:07.759Z,19.80
2023-03-18T12:10:39.405Z,20.30
2023-03-18T12:13:49.647Z,20.10
2023-03-18T12:16:41.739Z,20.30
2023-03-18T12:19:17.693Z,20.20
2023-03-18T12:22:32.287Z,19.80
2023-03-18T12:25:14.243Z,19.80
2023-03-18T12:28:03.570Z,20.50
2023-03-18T12:30:50.851Z,21.00
2023-03-18T12:33:50.841Z,20.40
2023-03-18T12:36:30.250Z,19.50
2023-03-18T12:38:57.737Z,18.80
2023-03-18T12:41:56.424Z,18.40
2023-03-18T12:44:42.789Z,18.00
2023-03-18T12:47:19.790Z,17.70
2023-03-18T12:49:57.380Z,17.50
2023-03-18T12:52:43.511Z,17.40
2023-03-18T12:55:23.315Z,17.60
2023-03-18T12:58:05.870Z,18.00
2023-03-18T13:00:41.796Z,18.00
2023-03-18T13:03:35.256Z,17.80
2023-03-18T13:06:14.116Z,17.60
2023-03-18T13:09:04.794Z,17.50
2023-03-18T13:12:05.322Z,17.50
2023-03-18T13:15:12.878Z,17.70
2023-03-18T13:17:41.489Z,17.70
2023-03-18T13:20:20.608Z,18.20
2023-03-18T13:23:19.692Z,19.20
2023-03-18T13:25:58.769Z,20.40
2023-03-18T13:28:44.859Z,21.40
2023-03-18T13:31:43.413Z,21.70
2023-03-18T13:34:37.839Z,22.20
2023-03-18T13:37:09.403Z,22.10
2023-03-18T13:39:52.030Z,21.70
2023-03-18T13:42:28.868Z,22.30
2023-03-18T13:44:55.812Z,23.00
2023-03-18T13:47:23.903Z,23.60
2023-03-18T13:50:01.248Z,23.60
2023-03-18T13:52:43.855Z,24.00
2023-03-18T13:55:22.778Z,24.10
2023-03-18T13:58:05.320Z,23.50
2023-03-18T14:00:34.723Z,22.40
2023-03-18T14:03:17.910Z,21.60
2023-03-18T14:05:47.201Z,21.50
2023-03-18T14:08:44.120Z,21.10
2023-03-18T14:11:17.395Z,20.30
2023-03-18T14:13:48.027Z,19.90
2023-03-18T14:16:20.722Z,19.60
2023-03-18T14:19:00.280Z,19.80
2023-03-18T14:21:33.210Z,19.90
2023-03-18T14:24:13.937Z,19.60
2023-03-18T14:26:42.879Z,19.30
2023-03-18T14:29:09.767Z,19.00
2023-03-18T14:31:39.710Z,18.80
2023-03-18T14:34:18.986Z,18.70
2023-03-18T14:37:14.944Z,18.50
2023-03-18T14:39:46.527Z,18.60
2023-03-18T14:42:41.992Z,18.70
2023-03-18T14:45:19.474Z,18.80
2023-03-18T14:47:50.860Z,18.80
2023-03-18T14:50:40.987Z,18.70
2023-03-18T14:53:26.744Z,18.60
2023-03-18T14:55:57.216Z,18.40
2023-03-18T14:58:24.542Z,18.20
2023-03-18T15:00:55.207Z,18.00
2023-03-18T15:03:26.841Z,17.90
2023-03-18T15:06:00.531Z,17.90
2023-03-18T15:08:46.707Z,17.80
2023-03-18T15:11:14.978Z,17.80
2023-03-18T15:13:42.628Z,17.70
2023-03-18T15:16:12.163Z,17.70
2023-03-18T15:18:39.916Z,17.60
2023-03-18T15:21:16.498Z,17.50
2023-03-18T15:23:55.682Z,17.40
2023-03-18T15:26:25.647Z,17.30
2023-03-18T15:29:00.982Z,17.20
2023-03-18T15:31:40.594Z,17.20
2023-03-18T15:34:19.630Z,17.10
2023-03-18T15:36:53.454Z,17.00
2023-03-18T15:39:30.716Z,16.90
2023-03-18T15:41:59.122Z,16.90
2023-03-18T15:44:37.285Z,16.80
2023-03-18T15:47:13.739Z,16.80
2023-03-18T15:49:54.584Z,16.70
2023-03-18T15:52:27.795Z,16.70
2023-03-18T15:54:54.732Z,16.60
2023-03-18T15:57:33.314Z,16.50
2023-03-18T16:00:00.383Z,16.40
2023-03-18T16:02:28.703Z,16.40
2023-03-18T16:05:24.742Z,16.40
2023-03-18T16:07:53.903Z,16.30
2023-03-18T16:10:23.110Z,16.20
2023-03-18T16:12:59.226Z,16.10
2023-03-18T16:15:27.881Z,16.10
2023-03-18T16:17:56.282Z,16.00
2023-03-18T16:20:27.922Z,15.90
2023-03-18T16:22:55.962Z,15.90
2023-03-18T16:25:24.686Z,15.80
2023-03-18T16:27:54.202Z,15.80
2023-03-18T16:30:33.235Z,15.70
2023-03-18T16:33:00.357Z,15.70
2023-03-18T16:35:32.655Z,15.60
2023-03-18T16:38:00.665Z,15.50
2023-03-18T16:40:29.905Z,15.40
2023-03-18T16:42:57.912Z,15.40
2023-03-18T16:45:30.407Z,15.30
2023-03-18T16:48:03.227Z,15.20
2023-03-18T16:50:34.385Z,15.10
2023-03-18T16:53:02.358Z,15.00
2023-03-18T16:55:29.564Z,14.90
2023-03-18T16:57:59.759Z,14.80
2023-03-18T17:00:32.194Z,14.70
2023-03-18T17:03:00.657Z,14.50
2023-03-18T17:05:28.595Z,14.40
2023-03-18T17:07:55.936Z,14.40
2023-03-18T17:10:26.213Z,14.30
2023-03-18T17:12:59.643Z,14.10
2023-03-18T17:15:31.765Z,14.10
2023-03-18T17:17:59.713Z,14.00
2023-03-18T17:20:30.349Z,13.90
2023-03-18T17:22:58.314Z,13.90
2023-03-18T17:25:27.589Z,13.80
2023-03-18T17:27:56.044Z,13.80
2023-03-18T17:30:26.942Z,13.80
2023-03-18T17:32:54.334Z,13.80
2023-03-18T17:35:22.904Z,13.80
2023-03-18T17:37:50.328Z,13.80
2023-03-18T17:40:19.569Z,13.80
2023-03-18T17:42:48.483Z,13.80
2023-03-18T17:45:32.867Z,13.80
2023-03-18T17:48:20.412Z,13.80
2023-03-18T17:50:52.864Z,13.80
2023-03-18T17:53:37.178Z,13.80
2023-03-18T17:56:06.478Z,13.80
2023-03-18T17:58:35.102Z,13.80
2023-03-18T18:01:13.511Z,13.80
2023-03-18T18:03:40.795Z,13.70
2023-03-18T18:06:11.774Z,13.70
2023-03-18T18:08:38.691Z,13.70
2023-03-18T18:11:24.265Z,13.60
2023-03-18T18:13:53.758Z,13.60
2023-03-18T18:16:21.646Z,13.60
2023-03-18T18:18:49.937Z,13.50
2023-03-18T18:21:20.419Z,13.50
2023-03-18T18:23:48.662Z,13.50
2023-03-18T18:26:18.203Z,13.40
2023-03-18T18:28:48.131Z,13.40
2023-03-18T18:31:17.640Z,13.40
2023-03-18T18:33:45.802Z,13.30
2023-03-18T18:36:14.376Z,13.30
2023-03-18T18:38:41.646Z,13.30
2023-03-18T18:41:08.928Z,13.20
2023-03-18T18:43:36.075Z,13.20
2023-03-18T18:46:03.542Z,13.10
2023-03-18T18:48:32.993Z,13.10
2023-03-18T18:51:01.076Z,13.00
2023-03-18T18:53:30.990Z,13.00
2023-03-18T18:56:03.737Z,12.90
2023-03-18T18:58:32.590Z,12.80
2023-03-18T19:01:00.277Z,12.80
2023-03-18T19:03:31.325Z,12.70
2023-03-18T19:05:59.768Z,12.70
2023-03-18T19:08:31.928Z,12.70
2023-03-18T19:11:02.011Z,12.50
2023-03-18T19:13:30.702Z,12.50
2023-03-18T19:16:00.867Z,12.50
2023-03-18T19:18:41.959Z,12.50
2023-03-18T19:21:08.975Z,12.40
2023-03-18T19:23:36.239Z,12.30
2023-03-18T19:26:05.177Z,12.20
2023-03-18T19:29:01.542Z,12.20
2023-03-18T19:31:34.981Z,12.10
2023-03-18T19:34:02.578Z,12.10
2023-03-18T19:36:39.300Z,12.10
2023-03-18T19:39:12.888Z,12.00
2023-03-18T19:41:39.786Z,11.90
2023-03-18T19:44:18.840Z,11.80
2023-03-18T19:46:47.391Z,11.90
2023-03-18T19:49:28.381Z,11.90
2023-03-18T19:51:55.630Z,11.80
2023-03-18T19:54:27.783Z,11.80
2023-03-18T19:56:57.119Z,11.70
2023-03-18T19:59:31.638Z,11.70
2023-03-18T20:02:11.576Z,11.70
2023-03-18T20:04:38.489Z,11.70
2023-03-18T20:07:06.437Z,11.70
2023-03-18T20:09:33.247Z,11.70
2023-03-18T20:12:05.526Z,11.60
2023-03-18T20:14:38.311Z,11.70
2023-03-18T20:17:23.690Z,11.60
2023-03-18T20:19:50.896Z,11.60
2023-03-18T20:22:31.667Z,11.50
2023-03-18T20:24:59.264Z,11.50
2023-03-18T20:27:26.304Z,11.50
2023-03-18T20:29:53.301Z,11.50
2023-03-18T20:32:20.479Z,11.40
2023-03-18T20:34:48.436Z,11.50
2023-03-18T20:37:36.049Z,11.40
2023-03-18T20:40:04.844Z,11.30
2023-03-18T20:42:32.409Z,11.40
2023-03-18T20:44:59.513Z,11.30
2023-03-18T20:47:26.351Z,11.30
2023-03-18T20:49:54.760Z,11.30
2023-03-18T20:52:28.580Z,11.30
2023-03-18T20:54:57.044Z,11.30
2023-03-18T20:57:25.281Z,11.30
2023-03-18T20:59:53.175Z,11.30
2023-03-18T21:02:26.436Z,11.20
2023-03-18T21:04:53.287Z,11.20
2023-03-18T21:07:20.771Z,11.20
2023-03-18T21:09:47.632Z,11.10
2023-03-18T21:12:18.189Z,11.10
2023-03-18T21:14:45.542Z,11.00
2023-03-18T21:17:27.308Z,11.00
2023-03-18T21:20:11.103Z,11.00
2023-03-18T21:22:44.064Z,11.00
2023-03-18T21:25:23.412Z,10.90
2023-03-18T21:27:50.654Z,10.90
2023-03-18T21:30:19.142Z,10.90
2023-03-18T21:32:46.299Z,10.90
2023-03-18T21:35:23.260Z,10.80
2023-03-18T21:37:50.836Z,10.80
2023-03-18T21:40:21.485Z,10.80
2023-03-18T21:42:50.313Z,10.80
2023-03-18T21:45:24.217Z,10.70
2023-03-18T21:47:52.655Z,10.70
2023-03-18T21:50:20.617Z,10.70
2023-03-18T21:52:47.856Z,10.70
2023-03-18T21:55:16.381Z,10.70
2023-03-18T21:57:43.576Z,10.70
2023-03-18T22:00:21.138Z,10.70
2023-03-18T22:02:48.826Z,10.60
2023-03-18T22:05:21.710Z,10.70
2023-03-18T22:07:50.618Z,10.70
2023-03-18T22:10:20.771Z,10.70
2023-03-18T22:12:47.739Z,10.70
2023-03-18T22:15:23.854Z,10.70
2023-03-18T22:17:51.926Z,10.80
2023-03-18T22:20:18.912Z,10.80
2023-03-18T22:22:48.613Z,10.80
2023-03-18T22:25:37.201Z,10.80
2023-03-18T22:28:04.297Z,10.80
2023-03-18T22:30:33.329Z,10.80
2023-03-18T22:33:02.075Z,10.80
2023-03-18T22:35:30.011Z,10.90
2023-03-18T22:37:57.651Z,10.90
2023-03-18T22:40:30.186Z,11.00
2023-03-18T22:43:01.645Z,11.00
2023-03-18T22:45:33.657Z,11.00
2023-03-18T22:48:04.622Z,10.90
2023-03-18T22:50:33.368Z,11.00
2023-03-18T22:53:08.677Z,10.90
2023-03-18T22:55:38.704Z,10.90
2023-03-18T22:58:09.653Z,10.90
2023-03-18T23:00:43.745Z,11.00
2023-03-18T23:03:23.173Z,10.90
2023-03-18T23:05:52.753Z,10.90
2023-03-18T23:08:21.740Z,10.90
2023-03-18T23:10:51.014Z,10.90
2023-03-18T23:13:19.139Z,10.90
2023-03-18T23:15:45.989Z,10.90
2023-03-18T23:18:15.750Z,10.90
2023-03-18T23:20:45.391Z,10.90
2023-03-18T23:23:12.473Z,10.80
2023-03-18T23:25:41.068Z,10.80
2023-03-18T23:28:08.293Z,10.80
2023-03-18T23:30:37.271Z,10.80
2023-03-18T23:33:04.174Z,10.80
2023-03-18T23:35:31.188Z,10.70
2023-03-18T23:37:58.345Z,10.80
2023-03-18T23:40:26.202Z,10.70
2023-03-18T23:42:53.642Z,10.70
2023-03-18T23:45:20.823Z,10.70
2023-03-18T23:47:47.832Z,10.70
2023-03-18T23:50:14.750Z,10.70
2023-03-18T23:52:41.699Z,10.70
2023-03-18T23:55:22.526Z,10.70
2023-03-18T23:57:55.856Z,10.60
